sensor_id;sensor_type;location;lat;lon;timestamp;P1;durP1;ratioP1;P2;durP2;ratioP2
70545;SDS011;58098;51.680;5.134;2022-10-23T00:00:37;23.10;;;10.57;;
70545;SDS011;58098;51.680;5.134;2022-10-23T00:03:03;22.00;;;10.77;;
70545;SDS011;58098;51.680;5.134;2022-10-23T00:05:28;21.10;;;11.00;;
70545;SDS011;58098;51.680;5.134;2022-10-23T00:07:54;24.50;;;10.43;;
70545;SDS011;58098;51.680;5.134;2022-10-23T00:10:20;24.65;;;10.68;;
70545;SDS011;58098;51.680;5.134;2022-10-23T00:12:45;24.13;;;10.40;;
70545;SDS011;58098;51.680;5.134;2022-10-23T00:15:11;25.57;;;10.67;;
70545;SDS011;58098;51.680;5.134;2022-10-23T00:17:36;26.63;;;10.73;;
70545;SDS011;58098;51.680;5.134;2022-10-23T00:20:02;22.77;;;10.23;;
70545;SDS011;58098;51.680;5.134;2022-10-23T00:22:27;21.88;;;10.82;;
70545;SDS011;58098;51.680;5.134;2022-10-23T00:24:53;29.45;;;10.50;;
70545;SDS011;58098;51.680;5.134;2022-10-23T00:27:18;21.35;;;10.40;;
70545;SDS011;58098;51.680;5.134;2022-10-23T00:29:43;21.67;;;10.67;;
70545;SDS011;58098;51.680;5.134;2022-10-23T00:32:09;26.17;;;10.70;;
70545;SDS011;58098;51.680;5.134;2022-10-23T00:34:34;22.90;;;11.77;;
70545;SDS011;58098;51.680;5.134;2022-10-23T00:36:59;24.87;;;10.50;;
70545;SDS011;58098;51.680;5.134;2022-10-23T00:39:25;27.17;;;10.50;;
70545;SDS011;58098;51.680;5.134;2022-10-23T00:41:50;25.33;;;10.43;;
70545;SDS011;58098;51.680;5.134;2022-10-23T00:46:46;24.73;;;10.20;;
70545;SDS011;58098;51.680;5.134;2022-10-23T00:49:11;29.40;;;10.70;;
70545;SDS011;58098;51.680;5.134;2022-10-23T00:51:43;18.17;;;10.98;;
70545;SDS011;58098;51.680;5.134;2022-10-23T00:54:10;25.03;;;10.23;;
70545;SDS011;58098;51.680;5.134;2022-10-23T00:56:37;23.17;;;10.50;;
70545;SDS011;58098;51.680;5.134;2022-10-23T00:59:03;24.08;;;11.68;;
70545;SDS011;58098;51.680;5.134;2022-10-23T01:01:28;29.23;;;10.43;;
70545;SDS011;58098;51.680;5.134;2022-10-23T01:03:53;30.27;;;11.93;;
70545;SDS011;58098;51.680;5.134;2022-10-23T01:11:42;20.10;;;10.00;;
70545;SDS011;58098;51.680;5.134;2022-10-23T01:19:36;29.15;;;10.93;;
70545;SDS011;58098;51.680;5.134;2022-10-23T01:27:41;22.38;;;9.63;;
70545;SDS011;58098;51.680;5.134;2022-10-23T01:30:11;19.03;;;9.63;;
70545;SDS011;58098;51.680;5.134;2022-10-23T01:32:43;20.80;;;9.50;;
70545;SDS011;58098;51.680;5.134;2022-10-23T01:37:36;22.87;;;9.23;;
70545;SDS011;58098;51.680;5.134;2022-10-23T01:40:04;23.73;;;10.30;;
70545;SDS011;58098;51.680;5.134;2022-10-23T01:42:32;21.67;;;10.80;;
70545;SDS011;58098;51.680;5.134;2022-10-23T01:45:02;22.00;;;9.93;;
70545;SDS011;58098;51.680;5.134;2022-10-23T01:47:28;26.15;;;10.18;;
70545;SDS011;58098;51.680;5.134;2022-10-23T01:49:55;28.83;;;10.60;;
70545;SDS011;58098;51.680;5.134;2022-10-23T01:52:20;24.15;;;10.27;;
70545;SDS011;58098;51.680;5.134;2022-10-23T01:54:46;20.87;;;10.03;;
70545;SDS011;58098;51.680;5.134;2022-10-23T01:57:13;27.40;;;10.00;;
70545;SDS011;58098;51.680;5.134;2022-10-23T01:59:41;23.90;;;9.88;;
70545;SDS011;58098;51.680;5.134;2022-10-23T02:02:08;20.30;;;9.37;;
70545;SDS011;58098;51.680;5.134;2022-10-23T02:04:36;23.25;;;10.10;;
70545;SDS011;58098;51.680;5.134;2022-10-23T02:07:02;22.55;;;10.25;;
70545;SDS011;58098;51.680;5.134;2022-10-23T02:09:27;20.13;;;9.77;;
70545;SDS011;58098;51.680;5.134;2022-10-23T02:11:54;24.10;;;9.03;;
70545;SDS011;58098;51.680;5.134;2022-10-23T02:17:07;26.70;;;9.95;;
70545;SDS011;58098;51.680;5.134;2022-10-23T02:19:54;21.38;;;9.70;;
70545;SDS011;58098;51.680;5.134;2022-10-23T02:22:25;20.97;;;9.73;;
70545;SDS011;58098;51.680;5.134;2022-10-23T02:24:55;26.38;;;9.90;;
70545;SDS011;58098;51.680;5.134;2022-10-23T02:27:25;17.90;;;8.57;;
70545;SDS011;58098;51.680;5.134;2022-10-23T02:29:56;19.48;;;9.30;;
70545;SDS011;58098;51.680;5.134;2022-10-23T02:32:23;21.95;;;9.10;;
70545;SDS011;58098;51.680;5.134;2022-10-23T02:34:50;21.20;;;9.37;;
70545;SDS011;58098;51.680;5.134;2022-10-23T02:37:15;26.83;;;10.03;;
70545;SDS011;58098;51.680;5.134;2022-10-23T02:39:40;18.47;;;9.63;;
70545;SDS011;58098;51.680;5.134;2022-10-23T02:42:09;22.17;;;9.00;;
70545;SDS011;58098;51.680;5.134;2022-10-23T02:49:51;26.70;;;10.05;;
70545;SDS011;58098;51.680;5.134;2022-10-23T02:52:23;29.73;;;9.90;;
70545;SDS011;58098;51.680;5.134;2022-10-23T02:59:55;27.87;;;9.87;;
70545;SDS011;58098;51.680;5.134;2022-10-23T03:02:24;28.02;;;10.25;;
70545;SDS011;58098;51.680;5.134;2022-10-23T03:04:51;30.90;;;10.45;;
70545;SDS011;58098;51.680;5.134;2022-10-23T03:07:17;24.48;;;10.45;;
70545;SDS011;58098;51.680;5.134;2022-10-23T03:09:42;27.17;;;10.38;;
70545;SDS011;58098;51.680;5.134;2022-10-23T03:12:08;29.50;;;10.20;;
70545;SDS011;58098;51.680;5.134;2022-10-23T03:14:33;24.03;;;10.97;;
70545;SDS011;58098;51.680;5.134;2022-10-23T03:16:58;26.95;;;10.60;;
70545;SDS011;58098;51.680;5.134;2022-10-23T03:19:23;20.50;;;10.45;;
70545;SDS011;58098;51.680;5.134;2022-10-23T03:21:48;19.47;;;10.13;;
70545;SDS011;58098;51.680;5.134;2022-10-23T03:24:13;25.43;;;10.90;;
70545;SDS011;58098;51.680;5.134;2022-10-23T03:26:39;23.73;;;11.53;;
70545;SDS011;58098;51.680;5.134;2022-10-23T03:29:04;26.93;;;11.07;;
70545;SDS011;58098;51.680;5.134;2022-10-23T03:31:29;22.13;;;10.53;;
70545;SDS011;58098;51.680;5.134;2022-10-23T03:33:54;26.33;;;10.93;;
70545;SDS011;58098;51.680;5.134;2022-10-23T03:36:20;22.73;;;10.50;;
70545;SDS011;58098;51.680;5.134;2022-10-23T03:38:45;26.75;;;10.80;;
70545;SDS011;58098;51.680;5.134;2022-10-23T03:41:10;21.87;;;10.17;;
70545;SDS011;58098;51.680;5.134;2022-10-23T03:43:35;23.63;;;10.90;;
70545;SDS011;58098;51.680;5.134;2022-10-23T03:46:00;27.93;;;10.90;;
70545;SDS011;58098;51.680;5.134;2022-10-23T03:48:26;22.30;;;11.00;;
70545;SDS011;58098;51.680;5.134;2022-10-23T03:50:51;30.67;;;12.47;;
70545;SDS011;58098;51.680;5.134;2022-10-23T03:53:17;27.23;;;11.23;;
70545;SDS011;58098;51.680;5.134;2022-10-23T03:55:45;26.33;;;11.53;;
70545;SDS011;58098;51.680;5.134;2022-10-23T03:58:10;26.40;;;10.77;;
70545;SDS011;58098;51.680;5.134;2022-10-23T04:00:35;34.20;;;12.53;;
70545;SDS011;58098;51.680;5.134;2022-10-23T04:03:01;25.53;;;11.73;;
70545;SDS011;58098;51.680;5.134;2022-10-23T04:05:26;30.10;;;11.03;;
70545;SDS011;58098;51.680;5.134;2022-10-23T04:07:51;25.70;;;11.33;;
70545;SDS011;58098;51.680;5.134;2022-10-23T04:10:16;26.70;;;11.23;;
70545;SDS011;58098;51.680;5.134;2022-10-23T04:12:42;24.77;;;11.17;;
70545;SDS011;58098;51.680;5.134;2022-10-23T04:15:07;25.75;;;10.73;;
70545;SDS011;58098;51.680;5.134;2022-10-23T04:17:32;23.43;;;10.63;;
70545;SDS011;58098;51.680;5.134;2022-10-23T04:19:57;30.10;;;11.23;;
70545;SDS011;58098;51.680;5.134;2022-10-23T04:22:23;24.77;;;10.43;;
70545;SDS011;58098;51.680;5.134;2022-10-23T04:24:48;24.60;;;11.17;;
70545;SDS011;58098;51.680;5.134;2022-10-23T04:27:13;26.27;;;11.23;;
70545;SDS011;58098;51.680;5.134;2022-10-23T04:29:38;27.30;;;10.60;;
70545;SDS011;58098;51.680;5.134;2022-10-23T04:32:05;25.47;;;10.53;;
70545;SDS011;58098;51.680;5.134;2022-10-23T04:34:30;32.75;;;12.60;;
70545;SDS011;58098;51.680;5.134;2022-10-23T04:36:56;28.73;;;10.73;;
70545;SDS011;58098;51.680;5.134;2022-10-23T04:39:21;22.13;;;11.07;;
70545;SDS011;58098;51.680;5.134;2022-10-23T04:41:46;19.70;;;9.80;;
70545;SDS011;58098;51.680;5.134;2022-10-23T04:44:11;28.80;;;11.57;;
70545;SDS011;58098;51.680;5.134;2022-10-23T04:46:37;17.90;;;8.30;;
70545;SDS011;58098;51.680;5.134;2022-10-23T04:49:02;24.05;;;11.18;;
70545;SDS011;58098;51.680;5.134;2022-10-23T04:51:27;23.10;;;10.73;;
70545;SDS011;58098;51.680;5.134;2022-10-23T04:53:53;23.23;;;8.53;;
70545;SDS011;58098;51.680;5.134;2022-10-23T04:56:18;20.50;;;9.90;;
70545;SDS011;58098;51.680;5.134;2022-10-23T04:58:43;23.33;;;9.37;;
70545;SDS011;58098;51.680;5.134;2022-10-23T05:01:08;28.27;;;9.83;;
70545;SDS011;58098;51.680;5.134;2022-10-23T05:03:36;27.65;;;10.80;;
70545;SDS011;58098;51.680;5.134;2022-10-23T05:06:02;25.30;;;9.87;;
70545;SDS011;58098;51.680;5.134;2022-10-23T05:08:27;22.77;;;10.53;;
70545;SDS011;58098;51.680;5.134;2022-10-23T05:10:53;24.20;;;10.77;;
70545;SDS011;58098;51.680;5.134;2022-10-23T05:13:18;25.90;;;10.57;;
70545;SDS011;58098;51.680;5.134;2022-10-23T05:15:52;24.38;;;10.23;;
70545;SDS011;58098;51.680;5.134;2022-10-23T05:18:19;21.80;;;10.48;;
70545;SDS011;58098;51.680;5.134;2022-10-23T05:20:45;24.47;;;10.17;;
70545;SDS011;58098;51.680;5.134;2022-10-23T05:23:12;23.77;;;10.93;;
70545;SDS011;58098;51.680;5.134;2022-10-23T05:25:40;26.10;;;11.55;;
70545;SDS011;58098;51.680;5.134;2022-10-23T05:28:05;25.87;;;10.63;;
70545;SDS011;58098;51.680;5.134;2022-10-23T05:30:31;22.07;;;10.87;;
70545;SDS011;58098;51.680;5.134;2022-10-23T05:32:57;31.20;;;11.88;;
70545;SDS011;58098;51.680;5.134;2022-10-23T05:35:23;25.98;;;11.55;;
70545;SDS011;58098;51.680;5.134;2022-10-23T05:37:48;24.90;;;10.53;;
70545;SDS011;58098;51.680;5.134;2022-10-23T05:40:14;20.80;;;9.60;;
70545;SDS011;58098;51.680;5.134;2022-10-23T05:42:40;23.38;;;11.02;;
70545;SDS011;58098;51.680;5.134;2022-10-23T05:45:06;22.73;;;10.30;;
70545;SDS011;58098;51.680;5.134;2022-10-23T05:47:31;35.70;;;11.63;;
70545;SDS011;58098;51.680;5.134;2022-10-23T05:49:56;24.53;;;11.23;;
70545;SDS011;58098;51.680;5.134;2022-10-23T05:52:21;27.37;;;11.60;;
70545;SDS011;58098;51.680;5.134;2022-10-23T05:54:47;29.10;;;10.97;;
70545;SDS011;58098;51.680;5.134;2022-10-23T05:57:12;19.03;;;9.67;;
70545;SDS011;58098;51.680;5.134;2022-10-23T05:59:37;23.77;;;10.73;;
70545;SDS011;58098;51.680;5.134;2022-10-23T06:02:02;22.97;;;11.27;;
70545;SDS011;58098;51.680;5.134;2022-10-23T06:04:27;21.47;;;10.97;;
70545;SDS011;58098;51.680;5.134;2022-10-23T06:06:53;18.73;;;11.00;;
70545;SDS011;58098;51.680;5.134;2022-10-23T06:09:18;28.63;;;11.40;;
70545;SDS011;58098;51.680;5.134;2022-10-23T06:11:43;32.33;;;11.53;;
70545;SDS011;58098;51.680;5.134;2022-10-23T06:14:08;27.40;;;10.50;;
70545;SDS011;58098;51.680;5.134;2022-10-23T06:16:33;29.33;;;10.98;;
70545;SDS011;58098;51.680;5.134;2022-10-23T06:18:59;20.63;;;10.30;;
70545;SDS011;58098;51.680;5.134;2022-10-23T06:21:24;21.27;;;10.20;;
70545;SDS011;58098;51.680;5.134;2022-10-23T06:23:50;23.63;;;9.90;;
70545;SDS011;58098;51.680;5.134;2022-10-23T06:26:16;26.13;;;10.63;;
70545;SDS011;58098;51.680;5.134;2022-10-23T06:28:42;23.00;;;10.10;;
70545;SDS011;58098;51.680;5.134;2022-10-23T06:31:07;27.17;;;9.97;;
70545;SDS011;58098;51.680;5.134;2022-10-23T06:33:33;23.50;;;10.57;;
70545;SDS011;58098;51.680;5.134;2022-10-23T06:35:58;23.83;;;10.37;;
70545;SDS011;58098;51.680;5.134;2022-10-23T06:38:24;26.67;;;10.83;;
70545;SDS011;58098;51.680;5.134;2022-10-23T06:40:52;15.67;;;8.80;;
70545;SDS011;58098;51.680;5.134;2022-10-23T06:43:18;25.52;;;10.65;;
70545;SDS011;58098;51.680;5.134;2022-10-23T06:45:43;20.33;;;10.37;;
70545;SDS011;58098;51.680;5.134;2022-10-23T06:48:08;21.17;;;9.67;;
70545;SDS011;58098;51.680;5.134;2022-10-23T06:50:35;24.27;;;10.70;;
70545;SDS011;58098;51.680;5.134;2022-10-23T06:53:00;25.30;;;10.80;;
70545;SDS011;58098;51.680;5.134;2022-10-23T06:55:25;25.10;;;11.30;;
70545;SDS011;58098;51.680;5.134;2022-10-23T06:57:50;20.90;;;9.63;;
70545;SDS011;58098;51.680;5.134;2022-10-23T07:00:16;22.80;;;10.10;;
70545;SDS011;58098;51.680;5.134;2022-10-23T07:02:41;18.20;;;9.53;;
70545;SDS011;58098;51.680;5.134;2022-10-23T07:05:06;26.17;;;10.23;;
70545;SDS011;58098;51.680;5.134;2022-10-23T07:07:31;22.17;;;9.93;;
70545;SDS011;58098;51.680;5.134;2022-10-23T07:09:56;26.23;;;10.80;;
70545;SDS011;58098;51.680;5.134;2022-10-23T07:12:22;24.73;;;9.63;;
70545;SDS011;58098;51.680;5.134;2022-10-23T07:14:47;21.30;;;9.93;;
70545;SDS011;58098;51.680;5.134;2022-10-23T07:17:12;22.27;;;9.47;;
70545;SDS011;58098;51.680;5.134;2022-10-23T07:19:38;23.70;;;10.00;;
70545;SDS011;58098;51.680;5.134;2022-10-23T07:22:03;24.83;;;11.07;;
70545;SDS011;58098;51.680;5.134;2022-10-23T07:24:28;21.07;;;9.77;;
70545;SDS011;58098;51.680;5.134;2022-10-23T07:26:55;27.20;;;10.50;;
70545;SDS011;58098;51.680;5.134;2022-10-23T07:29:20;24.47;;;10.10;;
70545;SDS011;58098;51.680;5.134;2022-10-23T07:31:45;30.03;;;10.17;;
70545;SDS011;58098;51.680;5.134;2022-10-23T07:34:11;20.33;;;9.57;;
70545;SDS011;58098;51.680;5.134;2022-10-23T07:36:36;21.57;;;10.00;;
70545;SDS011;58098;51.680;5.134;2022-10-23T07:39:01;22.77;;;10.53;;
70545;SDS011;58098;51.680;5.134;2022-10-23T07:41:26;24.13;;;10.13;;
70545;SDS011;58098;51.680;5.134;2022-10-23T07:43:51;23.27;;;10.00;;
70545;SDS011;58098;51.680;5.134;2022-10-23T07:46:17;20.33;;;10.37;;
70545;SDS011;58098;51.680;5.134;2022-10-23T07:48:42;22.10;;;9.70;;
70545;SDS011;58098;51.680;5.134;2022-10-23T07:51:10;25.07;;;10.00;;
70545;SDS011;58098;51.680;5.134;2022-10-23T07:53:36;23.50;;;9.90;;
70545;SDS011;58098;51.680;5.134;2022-10-23T07:56:02;21.73;;;9.93;;
70545;SDS011;58098;51.680;5.134;2022-10-23T07:58:28;19.40;;;9.77;;
70545;SDS011;58098;51.680;5.134;2022-10-23T08:00:57;17.75;;;9.02;;
70545;SDS011;58098;51.680;5.134;2022-10-23T08:03:26;21.27;;;9.50;;
70545;SDS011;58098;51.680;5.134;2022-10-23T08:05:52;19.75;;;9.40;;
70545;SDS011;58098;51.680;5.134;2022-10-23T08:08:18;24.00;;;10.50;;
70545;SDS011;58098;51.680;5.134;2022-10-23T08:10:44;24.77;;;9.07;;
70545;SDS011;58098;51.680;5.134;2022-10-23T08:13:10;19.63;;;9.30;;
70545;SDS011;58098;51.680;5.134;2022-10-23T08:15:36;18.73;;;8.60;;
70545;SDS011;58098;51.680;5.134;2022-10-23T08:18:01;18.30;;;8.70;;
70545;SDS011;58098;51.680;5.134;2022-10-23T08:20:27;17.33;;;9.10;;
70545;SDS011;58098;51.680;5.134;2022-10-23T08:22:52;19.57;;;8.40;;
70545;SDS011;58098;51.680;5.134;2022-10-23T08:25:17;17.77;;;8.93;;
70545;SDS011;58098;51.680;5.134;2022-10-23T08:27:42;14.73;;;8.50;;
70545;SDS011;58098;51.680;5.134;2022-10-23T08:30:08;17.40;;;8.80;;
70545;SDS011;58098;51.680;5.134;2022-10-23T08:32:33;12.87;;;7.80;;
70545;SDS011;58098;51.680;5.134;2022-10-23T08:34:58;13.87;;;7.83;;
70545;SDS011;58098;51.680;5.134;2022-10-23T08:37:23;14.77;;;7.80;;
70545;SDS011;58098;51.680;5.134;2022-10-23T08:39:48;16.07;;;7.40;;
70545;SDS011;58098;51.680;5.134;2022-10-23T08:42:24;11.27;;;7.20;;
70545;SDS011;58098;51.680;5.134;2022-10-23T08:45:01;12.38;;;7.53;;
70545;SDS011;58098;51.680;5.134;2022-10-23T08:47:35;12.60;;;7.33;;
70545;SDS011;58098;51.680;5.134;2022-10-23T08:50:05;12.85;;;7.47;;
70545;SDS011;58098;51.680;5.134;2022-10-23T08:52:43;11.40;;;7.40;;
70545;SDS011;58098;51.680;5.134;2022-10-23T08:55:14;14.32;;;6.55;;
70545;SDS011;58098;51.680;5.134;2022-10-23T08:57:46;10.45;;;6.78;;
70545;SDS011;58098;51.680;5.134;2022-10-23T09:00:15;18.90;;;7.20;;
70545;SDS011;58098;51.680;5.134;2022-10-23T09:02:44;16.05;;;7.18;;
70545;SDS011;58098;51.680;5.134;2022-10-23T09:05:17;16.50;;;7.00;;
70545;SDS011;58098;51.680;5.134;2022-10-23T09:10:29;12.57;;;7.05;;
70545;SDS011;58098;51.680;5.134;2022-10-23T09:12:59;14.17;;;7.10;;
70545;SDS011;58098;51.680;5.134;2022-10-23T09:15:30;14.07;;;7.35;;
70545;SDS011;58098;51.680;5.134;2022-10-23T09:18:00;14.70;;;7.25;;
70545;SDS011;58098;51.680;5.134;2022-10-23T09:20:27;11.93;;;7.30;;
70545;SDS011;58098;51.680;5.134;2022-10-23T09:25:37;10.23;;;6.97;;
70545;SDS011;58098;51.680;5.134;2022-10-23T09:28:03;11.70;;;6.75;;
70545;SDS011;58098;51.680;5.134;2022-10-23T09:30:35;12.98;;;6.30;;
70545;SDS011;58098;51.680;5.134;2022-10-23T09:33:12;14.68;;;6.88;;
70545;SDS011;58098;51.680;5.134;2022-10-23T09:35:38;14.20;;;6.78;;
70545;SDS011;58098;51.680;5.134;2022-10-23T09:38:03;16.37;;;6.57;;
70545;SDS011;58098;51.680;5.134;2022-10-23T09:40:41;9.25;;;6.20;;
70545;SDS011;58098;51.680;5.134;2022-10-23T09:43:13;14.90;;;7.23;;
70545;SDS011;58098;51.680;5.134;2022-10-23T09:45:39;12.55;;;6.40;;
70545;SDS011;58098;51.680;5.134;2022-10-23T09:48:18;10.50;;;6.82;;
70545;SDS011;58098;51.680;5.134;2022-10-23T09:50:47;10.60;;;6.35;;
70545;SDS011;58098;51.680;5.134;2022-10-23T09:53:14;15.00;;;6.85;;
70545;SDS011;58098;51.680;5.134;2022-10-23T09:55:41;13.03;;;6.60;;
70545;SDS011;58098;51.680;5.134;2022-10-23T09:58:16;12.07;;;6.30;;
70545;SDS011;58098;51.680;5.134;2022-10-23T10:00:45;9.73;;;5.72;;
70545;SDS011;58098;51.680;5.134;2022-10-23T10:03:18;9.40;;;5.93;;
70545;SDS011;58098;51.680;5.134;2022-10-23T10:08:47;8.65;;;5.65;;
70545;SDS011;58098;51.680;5.134;2022-10-23T10:19:28;14.45;;;5.60;;
70545;SDS011;58098;51.680;5.134;2022-10-23T10:22:02;10.15;;;5.45;;
70545;SDS011;58098;51.680;5.134;2022-10-23T10:35:18;10.73;;;5.30;;
70545;SDS011;58098;51.680;5.134;2022-10-23T10:40:22;11.05;;;4.70;;
70545;SDS011;58098;51.680;5.134;2022-10-23T10:43:08;11.95;;;5.15;;
70545;SDS011;58098;51.680;5.134;2022-10-23T10:45:38;11.43;;;5.10;;
70545;SDS011;58098;51.680;5.134;2022-10-23T10:50:51;9.87;;;4.80;;
70545;SDS011;58098;51.680;5.134;2022-10-23T10:55:42;8.53;;;4.53;;
70545;SDS011;58098;51.680;5.134;2022-10-23T10:58:15;11.02;;;4.85;;
70545;SDS011;58098;51.680;5.134;2022-10-23T11:00:42;10.30;;;4.80;;
70545;SDS011;58098;51.680;5.134;2022-10-23T11:05:34;7.53;;;4.88;;
70545;SDS011;58098;51.680;5.134;2022-10-23T11:10:26;9.27;;;4.80;;
70545;SDS011;58098;51.680;5.134;2022-10-23T11:12:52;10.20;;;4.50;;
70545;SDS011;58098;51.680;5.134;2022-10-23T11:15:22;8.07;;;4.63;;
70545;SDS011;58098;51.680;5.134;2022-10-23T11:17:58;8.80;;;4.40;;
70545;SDS011;58098;51.680;5.134;2022-10-23T11:30:39;8.20;;;4.38;;
70545;SDS011;58098;51.680;5.134;2022-10-23T11:38:25;11.45;;;4.53;;
70545;SDS011;58098;51.680;5.134;2022-10-23T11:40:56;7.40;;;4.78;;
70545;SDS011;58098;51.680;5.134;2022-10-23T11:43:32;9.35;;;3.95;;
70545;SDS011;58098;51.680;5.134;2022-10-23T11:46:10;8.40;;;4.32;;
70545;SDS011;58098;51.680;5.134;2022-10-23T11:48:36;8.10;;;4.50;;
70545;SDS011;58098;51.680;5.134;2022-10-23T11:51:02;6.65;;;4.15;;
70545;SDS011;58098;51.680;5.134;2022-10-23T11:56:00;7.75;;;4.05;;
70545;SDS011;58098;51.680;5.134;2022-10-23T11:58:27;12.13;;;4.45;;
70545;SDS011;58098;51.680;5.134;2022-10-23T12:03:22;7.07;;;3.77;;
70545;SDS011;58098;51.680;5.134;2022-10-23T12:05:54;5.82;;;3.30;;
70545;SDS011;58098;51.680;5.134;2022-10-23T12:08:21;8.68;;;4.13;;
70545;SDS011;58098;51.680;5.134;2022-10-23T12:10:47;6.18;;;3.75;;
70545;SDS011;58098;51.680;5.134;2022-10-23T12:15:52;6.23;;;3.37;;
70545;SDS011;58098;51.680;5.134;2022-10-23T12:18:18;6.75;;;3.70;;
70545;SDS011;58098;51.680;5.134;2022-10-23T12:23:25;12.13;;;4.30;;
70545;SDS011;58098;51.680;5.134;2022-10-23T12:31:47;10.88;;;3.60;;
70545;SDS011;58098;51.680;5.134;2022-10-23T12:34:08;7.50;;;3.30;;
70545;SDS011;58098;51.680;5.134;2022-10-23T12:39:23;7.33;;;3.20;;
70545;SDS011;58098;51.680;5.134;2022-10-23T12:41:49;6.68;;;3.15;;
70545;SDS011;58098;51.680;5.134;2022-10-23T12:44:14;8.37;;;3.60;;
70545;SDS011;58098;51.680;5.134;2022-10-23T12:46:40;6.73;;;3.60;;
70545;SDS011;58098;51.680;5.134;2022-10-23T12:49:16;14.02;;;3.67;;
70545;SDS011;58098;51.680;5.134;2022-10-23T12:51:42;7.32;;;3.10;;
70545;SDS011;58098;51.680;5.134;2022-10-23T12:54:14;13.97;;;3.90;;
70545;SDS011;58098;51.680;5.134;2022-10-23T12:56:40;8.25;;;3.45;;
70545;SDS011;58098;51.680;5.134;2022-10-23T12:59:09;5.53;;;2.70;;
70545;SDS011;58098;51.680;5.134;2022-10-23T13:01:37;6.43;;;3.07;;
70545;SDS011;58098;51.680;5.134;2022-10-23T13:06:46;6.57;;;3.65;;
70545;SDS011;58098;51.680;5.134;2022-10-23T13:09:23;10.20;;;3.33;;
70545;SDS011;58098;51.680;5.134;2022-10-23T13:11:49;9.23;;;3.75;;
70545;SDS011;58098;51.680;5.134;2022-10-23T13:14:37;9.95;;;3.40;;
70545;SDS011;58098;51.680;5.134;2022-10-23T13:17:10;8.03;;;3.60;;
70545;SDS011;58098;51.680;5.134;2022-10-23T13:19:35;9.55;;;3.40;;
70545;SDS011;58098;51.680;5.134;2022-10-23T13:22:10;5.53;;;3.20;;
70545;SDS011;58098;51.680;5.134;2022-10-23T13:24:38;8.17;;;3.40;;
70545;SDS011;58098;51.680;5.134;2022-10-23T13:27:19;6.40;;;3.55;;
70545;SDS011;58098;51.680;5.134;2022-10-23T13:29:48;12.55;;;3.92;;
70545;SDS011;58098;51.680;5.134;2022-10-23T13:32:23;7.60;;;3.60;;
70545;SDS011;58098;51.680;5.134;2022-10-23T13:34:52;5.97;;;3.45;;
70545;SDS011;58098;51.680;5.134;2022-10-23T13:39:44;10.83;;;3.63;;
70545;SDS011;58098;51.680;5.134;2022-10-23T13:42:11;6.50;;;2.97;;
70545;SDS011;58098;51.680;5.134;2022-10-23T13:44:37;5.43;;;3.28;;
70545;SDS011;58098;51.680;5.134;2022-10-23T13:47:02;9.13;;;3.30;;
70545;SDS011;58098;51.680;5.134;2022-10-23T13:49:28;5.63;;;3.30;;
70545;SDS011;58098;51.680;5.134;2022-10-23T13:51:53;6.93;;;3.30;;
70545;SDS011;58098;51.680;5.134;2022-10-23T13:54:23;13.68;;;3.53;;
70545;SDS011;58098;51.680;5.134;2022-10-23T13:56:49;10.00;;;3.38;;
70545;SDS011;58098;51.680;5.134;2022-10-23T13:59:14;5.93;;;2.90;;
70545;SDS011;58098;51.680;5.134;2022-10-23T14:01:40;6.60;;;3.50;;
70545;SDS011;58098;51.680;5.134;2022-10-23T14:04:05;5.43;;;3.33;;
70545;SDS011;58098;51.680;5.134;2022-10-23T14:06:31;7.97;;;3.83;;
70545;SDS011;58098;51.680;5.134;2022-10-23T14:08:57;6.10;;;3.47;;
70545;SDS011;58098;51.680;5.134;2022-10-23T14:11:22;7.50;;;3.80;;
70545;SDS011;58098;51.680;5.134;2022-10-23T14:13:47;5.77;;;3.30;;
70545;SDS011;58098;51.680;5.134;2022-10-23T14:16:13;11.43;;;3.30;;
70545;SDS011;58098;51.680;5.134;2022-10-23T14:18:39;10.07;;;3.70;;
70545;SDS011;58098;51.680;5.134;2022-10-23T14:21:05;7.00;;;3.27;;
70545;SDS011;58098;51.680;5.134;2022-10-23T14:23:30;5.95;;;2.97;;
70545;SDS011;58098;51.680;5.134;2022-10-23T14:26:05;9.03;;;3.17;;
70545;SDS011;58098;51.680;5.134;2022-10-23T14:28:30;9.52;;;3.30;;
70545;SDS011;58098;51.680;5.134;2022-10-23T14:30:55;12.90;;;3.70;;
70545;SDS011;58098;51.680;5.134;2022-10-23T14:33:21;7.20;;;3.07;;
70545;SDS011;58098;51.680;5.134;2022-10-23T14:35:48;7.97;;;3.60;;
70545;SDS011;58098;51.680;5.134;2022-10-23T14:38:13;6.10;;;3.33;;
70545;SDS011;58098;51.680;5.134;2022-10-23T14:40:38;9.40;;;3.37;;
70545;SDS011;58098;51.680;5.134;2022-10-23T14:43:04;8.00;;;3.00;;
70545;SDS011;58098;51.680;5.134;2022-10-23T14:45:29;8.00;;;3.37;;
70545;SDS011;58098;51.680;5.134;2022-10-23T14:47:54;9.53;;;3.43;;
70545;SDS011;58098;51.680;5.134;2022-10-23T14:50:20;8.60;;;3.87;;
70545;SDS011;58098;51.680;5.134;2022-10-23T14:52:45;6.43;;;3.13;;
70545;SDS011;58098;51.680;5.134;2022-10-23T14:55:10;10.43;;;3.30;;
70545;SDS011;58098;51.680;5.134;2022-10-23T14:57:35;8.87;;;3.93;;
70545;SDS011;58098;51.680;5.134;2022-10-23T15:00:01;8.52;;;3.97;;
70545;SDS011;58098;51.680;5.134;2022-10-23T15:02:27;5.27;;;3.47;;
70545;SDS011;58098;51.680;5.134;2022-10-23T15:04:52;8.17;;;4.10;;
70545;SDS011;58098;51.680;5.134;2022-10-23T15:07:17;8.30;;;3.50;;
70545;SDS011;58098;51.680;5.134;2022-10-23T15:09:42;10.50;;;3.23;;
70545;SDS011;58098;51.680;5.134;2022-10-23T15:12:07;8.47;;;3.83;;
70545;SDS011;58098;51.680;5.134;2022-10-23T15:14:33;9.30;;;3.73;;
70545;SDS011;58098;51.680;5.134;2022-10-23T15:16:58;8.85;;;3.60;;
70545;SDS011;58098;51.680;5.134;2022-10-23T15:19:23;11.87;;;3.77;;
70545;SDS011;58098;51.680;5.134;2022-10-23T15:21:49;7.67;;;3.70;;
70545;SDS011;58098;51.680;5.134;2022-10-23T15:24:14;12.43;;;3.90;;
70545;SDS011;58098;51.680;5.134;2022-10-23T15:26:40;8.90;;;3.90;;
70545;SDS011;58098;51.680;5.134;2022-10-23T15:29:07;8.30;;;3.63;;
70545;SDS011;58098;51.680;5.134;2022-10-23T15:34:11;11.40;;;3.70;;
70545;SDS011;58098;51.680;5.134;2022-10-23T15:36:36;9.63;;;3.70;;
70545;SDS011;58098;51.680;5.134;2022-10-23T15:39:04;8.37;;;3.30;;
70545;SDS011;58098;51.680;5.134;2022-10-23T15:41:31;10.13;;;3.85;;
70545;SDS011;58098;51.680;5.134;2022-10-23T15:43:57;8.57;;;4.00;;
70545;SDS011;58098;51.680;5.134;2022-10-23T15:46:22;6.03;;;3.90;;
70545;SDS011;58098;51.680;5.134;2022-10-23T15:48:47;6.93;;;3.50;;
70545;SDS011;58098;51.680;5.134;2022-10-23T15:51:13;9.90;;;3.33;;
70545;SDS011;58098;51.680;5.134;2022-10-23T15:53:38;7.60;;;3.63;;
70545;SDS011;58098;51.680;5.134;2022-10-23T15:56:03;8.67;;;3.77;;
70545;SDS011;58098;51.680;5.134;2022-10-23T15:58:28;8.97;;;4.10;;
70545;SDS011;58098;51.680;5.134;2022-10-23T16:00:53;6.60;;;3.77;;
70545;SDS011;58098;51.680;5.134;2022-10-23T16:03:19;8.10;;;3.83;;
70545;SDS011;58098;51.680;5.134;2022-10-23T16:05:44;10.10;;;4.10;;
70545;SDS011;58098;51.680;5.134;2022-10-23T16:08:09;9.27;;;3.60;;
70545;SDS011;58098;51.680;5.134;2022-10-23T16:10:40;9.73;;;3.57;;
70545;SDS011;58098;51.680;5.134;2022-10-23T16:13:06;8.55;;;3.70;;
70545;SDS011;58098;51.680;5.134;2022-10-23T16:15:35;9.00;;;3.70;;
70545;SDS011;58098;51.680;5.134;2022-10-23T16:18:00;11.25;;;3.83;;
70545;SDS011;58098;51.680;5.134;2022-10-23T16:20:25;6.23;;;3.67;;
70545;SDS011;58098;51.680;5.134;2022-10-23T16:22:50;9.07;;;4.00;;
70545;SDS011;58098;51.680;5.134;2022-10-23T16:25:16;8.77;;;3.80;;
70545;SDS011;58098;51.680;5.134;2022-10-23T16:27:41;7.40;;;3.77;;